createdAt,value
2017-10-03T00:00:52.132Z,98769.25
2017-10-03T00:03:19.974Z,98772.08
2017-10-03T00:05:47.471Z,98769.23
2017-10-03T00:08:14.943Z,98773.78
2017-10-03T00:10:42.426Z,98767.32
2017-10-03T00:13:09.898Z,98767.22
2017-10-03T00:15:37.454Z,98762.95
2017-10-03T00:18:05.015Z,98754.81
2017-10-03T00:20:32.475Z,98742.02
2017-10-03T00:22:59.954Z,98738.38
2017-10-03T00:25:27.691Z,98745.05
2017-10-03T00:27:55.149Z,98734.31
2017-10-03T00:30:22.614Z,98729.34
2017-10-03T00:32:50.093Z,98719.51
2017-10-03T00:35:17.555Z,98712.42
2017-10-03T00:37:45.027Z,98703.97
2017-10-03T00:40:12.501Z,98718.64
2017-10-03T00:42:39.967Z,98730.66
2017-10-03T00:45:07.434Z,98717.14
2017-10-03T00:47:35.173Z,98711.83
2017-10-03T00:50:02.625Z,98697.55
2017-10-03T00:52:30.127Z,98697.62
2017-10-03T00:54:57.634Z,98714.78
2017-10-03T00:57:25.092Z,98725.69
2017-10-03T00:59:52.558Z,98712.17
2017-10-03T01:02:20.077Z,98712.06
2017-10-03T01:04:47.548Z,98709.84
2017-10-03T01:07:15.005Z,98708.52
2017-10-03T01:09:42.860Z,98707.44
2017-10-03T01:12:10.311Z,98702.95
2017-10-03T01:14:37.759Z,98708.72
2017-10-03T01:17:05.316Z,98711.30
2017-10-03T01:19:32.767Z,98696.98
2017-10-03T01:22:00.246Z,98689.23
2017-10-03T01:24:27.702Z,98697.64
2017-10-03T01:26:55.170Z,98698.54
2017-10-03T01:29:22.631Z,98701.20
2017-10-03T01:31:50.363Z,98698.02
2017-10-03T01:34:17.933Z,98707.91
2017-10-03T01:36:45.394Z,98712.24
2017-10-03T01:39:12.938Z,98719.02
2017-10-03T01:41:40.444Z,98713.67
2017-10-03T01:44:07.943Z,98719.78
2017-10-03T01:46:35.396Z,98718.42
2017-10-03T01:49:03.179Z,98719.05
2017-10-03T01:51:30.634Z,98722.76
2017-10-03T01:53:58.102Z,98718.27
2017-10-03T01:56:25.596Z,98726.25
2017-10-03T01:58:53.061Z,98718.58
2017-10-03T02:01:20.530Z,98720.66
2017-10-03T02:03:47.986Z,98713.06
2017-10-03T02:06:15.795Z,98708.48
2017-10-03T02:08:43.247Z,98711.61
2017-10-03T02:11:10.709Z,98700.70
2017-10-03T02:13:38.182Z,98688.72
2017-10-03T02:16:05.629Z,98696.64
2017-10-03T02:18:33.098Z,98701.08
2017-10-03T02:21:00.551Z,98708.99
2017-10-03T02:23:28.295Z,98711.22
2017-10-03T02:25:55.748Z,98719.83
2017-10-03T02:28:23.206Z,98706.36
2017-10-03T02:30:50.675Z,98712.47
2017-10-03T02:33:18.228Z,98717.67
2017-10-03T02:35:45.708Z,98722.42
2017-10-03T02:38:13.165Z,98720.69
2017-10-03T02:40:40.892Z,98723.56
2017-10-03T02:43:08.352Z,98725.07
2017-10-03T02:45:35.870Z,98722.38
2017-10-03T02:48:03.345Z,98720.47
2017-10-03T02:50:30.794Z,98718.77
2017-10-03T02:52:58.517Z,98716.74
2017-10-03T02:55:25.982Z,98719.80
2017-10-03T02:57:53.515Z,98704.76
2017-10-03T03:00:20.999Z,98710.52
2017-10-03T03:02:48.452Z,98718.08
2017-10-03T03:05:15.918Z,98712.14
2017-10-03T03:07:43.369Z,98709.62
2017-10-03T03:10:10.877Z,98705.13
2017-10-03T03:12:38.343Z,98703.44
2017-10-03T03:15:06.119Z,98694.03
2017-10-03T03:17:33.571Z,98699.31
2017-10-03T03:20:01.033Z,98698.04
2017-10-03T03:22:28.520Z,98704.87
2017-10-03T03:24:55.984Z,98701.64
2017-10-03T03:27:24.258Z,98697.75
2017-10-03T03:29:51.716Z,98706.08
2017-10-03T03:32:19.475Z,98711.17
2017-10-03T03:34:46.956Z,98711.07
2017-10-03T03:37:14.420Z,98708.14
2017-10-03T03:39:41.881Z,98713.52
2017-10-03T03:42:09.377Z,98711.80
2017-10-03T03:44:36.844Z,98722.09
2017-10-03T03:47:04.313Z,98718.69
2017-10-03T03:49:31.794Z,98710.08
2017-10-03T03:51:59.320Z,98705.59
2017-10-03T03:54:27.119Z,98704.63
2017-10-03T03:56:54.562Z,98705.36
2017-10-03T03:59:22.018Z,98704.22
2017-10-03T04:01:49.514Z,98710.03
2017-10-03T04:04:16.957Z,98716.00
2017-10-03T04:06:44.430Z,98711.59
2017-10-03T04:09:11.915Z,98718.53
2017-10-03T04:11:39.395Z,98707.81
2017-10-03T04:14:06.878Z,98715.66
2017-10-03T04:16:34.701Z,98716.19
2017-10-03T04:19:02.149Z,98704.51
2017-10-03T04:21:29.612Z,98712.42
2017-10-03T04:23:57.075Z,98699.97
2017-10-03T04:26:24.530Z,98706.61
2017-10-03T04:28:52.004Z,98710.27
2017-10-03T04:31:19.470Z,98711.42
2017-10-03T04:33:46.932Z,98703.14
2017-10-03T04:36:14.381Z,98716.09
2017-10-03T04:38:42.118Z,98711.95
2017-10-03T04:41:09.678Z,98717.11
2017-10-03T04:43:37.237Z,98730.53
2017-10-03T04:46:04.699Z,98720.81
2017-10-03T04:48:32.151Z,98717.41
2017-10-03T04:50:59.616Z,98704.00
2017-10-03T04:53:27.069Z,98704.64
2017-10-03T04:55:54.854Z,98708.66
2017-10-03T04:58:22.342Z,98700.27
2017-10-03T05:00:49.788Z,98700.88
2017-10-03T05:03:17.299Z,98696.20
2017-10-03T05:05:44.755Z,98699.84
2017-10-03T05:08:12.232Z,98699.44
2017-10-03T05:10:39.692Z,98713.50
2017-10-03T05:13:07.166Z,98734.78
2017-10-03T05:15:34.618Z,98745.08
2017-10-03T05:18:02.449Z,98748.94
2017-10-03T05:20:29.917Z,98763.95
2017-10-03T05:22:57.492Z,98770.98
2017-10-03T05:25:25.057Z,98782.50
2017-10-03T05:27:52.512Z,98789.92
2017-10-03T05:30:19.992Z,98801.38
2017-10-03T05:32:47.450Z,98799.16
2017-10-03T05:35:14.922Z,98808.20
2017-10-03T05:37:42.392Z,98807.72
2017-10-03T05:40:10.189Z,98817.60
2017-10-03T05:42:37.650Z,98821.39
2017-10-03T05:45:05.122Z,98818.34
2017-10-03T05:47:32.603Z,98832.38
2017-10-03T05:50:00.060Z,98837.56
2017-10-03T05:52:27.534Z,98844.13
2017-10-03T05:54:55.017Z,98848.33
2017-10-03T05:57:22.474Z,98846.77
2017-10-03T05:59:49.933Z,98856.86
2017-10-03T06:02:17.405Z,98862.11
2017-10-03T06:04:44.879Z,98869.86
2017-10-03T06:07:12.349Z,98865.23
2017-10-03T06:09:39.805Z,98873.87
2017-10-03T06:12:07.286Z,98872.91
2017-10-03T06:14:34.741Z,98873.75
2017-10-03T06:17:02.459Z,98884.95
2017-10-03T06:19:29.922Z,98890.66
2017-10-03T06:21:57.401Z,98896.00
2017-10-03T06:24:24.882Z,98903.67
2017-10-03T06:26:52.352Z,98908.05
2017-10-03T06:29:19.876Z,98910.02
2017-10-03T06:31:47.361Z,98919.02
2017-10-03T06:34:14.836Z,98917.05
2017-10-03T06:36:42.403Z,98919.94
2017-10-03T06:39:10.190Z,98918.31
2017-10-03T06:41:37.638Z,98935.64
2017-10-03T06:44:05.087Z,98938.16
2017-10-03T06:46:32.548Z,98942.64
2017-10-03T06:49:00.013Z,98950.87
2017-10-03T06:51:27.625Z,98953.30
2017-10-03T06:53:55.100Z,98958.88
2017-10-03T06:56:22.581Z,98966.86
2017-10-03T06:58:50.036Z,98970.81
2017-10-03T07:01:17.807Z,98974.00
2017-10-03T07:03:45.264Z,98975.64
2017-10-03T07:06:12.728Z,98980.23
2017-10-03T07:08:40.203Z,98985.58
2017-10-03T07:11:07.681Z,98989.11
2017-10-03T07:13:35.160Z,98987.60
2017-10-03T07:16:02.627Z,98991.34
2017-10-03T07:18:30.110Z,98989.38
2017-10-03T07:20:57.590Z,98989.69
2017-10-03T07:23:25.300Z,99001.37
2017-10-03T07:25:52.750Z,98996.99
2017-10-03T07:28:20.204Z,99003.11
2017-10-03T07:30:47.773Z,99015.13
2017-10-03T07:33:15.225Z,99019.25
2017-10-03T07:35:42.690Z,99015.42
2017-10-03T07:38:10.153Z,99016.84
2017-10-03T07:40:37.951Z,99022.50
2017-10-03T07:43:05.407Z,99032.73
2017-10-03T07:45:32.952Z,99042.11
2017-10-03T07:48:00.434Z,99042.94
2017-10-03T07:50:27.965Z,99047.38
2017-10-03T07:52:55.527Z,99053.08
2017-10-03T07:55:22.994Z,99060.87
2017-10-03T07:57:50.477Z,99066.59
2017-10-03T08:00:17.927Z,99071.81
2017-10-03T08:02:45.760Z,99066.53
2017-10-03T08:05:13.649Z,99076.57
2017-10-03T08:07:41.208Z,99083.04
2017-10-03T08:10:08.693Z,99078.86
2017-10-03T08:12:36.151Z,99090.54
2017-10-03T08:15:03.624Z,99097.39
2017-10-03T08:17:31.087Z,99104.41
2017-10-03T08:19:58.566Z,99108.86
2017-10-03T08:22:26.030Z,99113.39
2017-10-03T08:24:53.850Z,99125.01
2017-10-03T08:27:21.333Z,99123.22
2017-10-03T08:29:48.825Z,99124.49
2017-10-03T08:32:16.306Z,99125.66
2017-10-03T08:34:43.779Z,99130.77
2017-10-03T08:37:11.261Z,99137.77
2017-10-03T08:39:38.747Z,99141.91
2017-10-03T08:42:06.240Z,99142.15
2017-10-03T08:44:33.697Z,99145.14
2017-10-03T08:47:01.195Z,99150.84
2017-10-03T08:49:28.680Z,99158.16
2017-10-03T08:51:56.437Z,99161.38
2017-10-03T08:54:23.899Z,99168.88
2017-10-03T08:56:51.514Z,99165.77
2017-10-03T08:59:19.051Z,99166.84
2017-10-03T09:01:46.583Z,99178.44
2017-10-03T09:04:14.067Z,99177.28
2017-10-03T09:06:41.595Z,99178.13
2017-10-03T09:09:09.160Z,99180.82
2017-10-03T09:11:36.724Z,99190.15
2017-10-03T09:14:04.505Z,99187.78
2017-10-03T09:16:31.984Z,99196.52
2017-10-03T09:18:59.433Z,99197.95
2017-10-03T09:21:26.909Z,99204.59
2017-10-03T09:23:54.398Z,99200.33
2017-10-03T09:26:21.866Z,99200.45
2017-10-03T09:28:49.353Z,99208.20
2017-10-03T09:31:16.827Z,99208.20
2017-10-03T09:33:44.304Z,99215.65
2017-10-03T09:36:12.082Z,99218.77
2017-10-03T09:38:39.587Z,99233.38
2017-10-03T09:41:07.122Z,99224.83
2017-10-03T09:43:34.606Z,99223.80
2017-10-03T09:46:02.083Z,99233.41
2017-10-03T09:48:29.563Z,99244.59
2017-10-03T09:50:57.070Z,99243.06
2017-10-03T09:53:24.808Z,99238.97
2017-10-03T09:55:52.305Z,99237.03
2017-10-03T09:58:19.806Z,99246.59
2017-10-03T10:00:47.283Z,99245.75
2017-10-03T10:03:14.766Z,99242.48
2017-10-03T10:05:42.260Z,99254.59
2017-10-03T10:08:09.766Z,99247.34
2017-10-03T10:10:37.276Z,99260.09
2017-10-03T10:13:04.809Z,99267.11
2017-10-03T10:15:32.377Z,99259.73
2017-10-03T10:23:45.439Z,99281.30
2017-10-03T10:26:12.901Z,99286.14
2017-10-03T10:28:40.643Z,99287.22
2017-10-03T10:31:08.165Z,99288.84
2017-10-03T10:33:35.680Z,99297.56
2017-10-03T10:36:03.161Z,99300.75
2017-10-03T10:38:30.634Z,99300.44
2017-10-03T10:40:58.122Z,99300.95
2017-10-03T10:43:25.697Z,99300.14
2017-10-03T10:45:53.176Z,99296.75
2017-10-03T10:48:20.872Z,99309.17
2017-10-03T10:50:48.651Z,99310.25
2017-10-03T10:53:16.102Z,99314.95
2017-10-03T10:55:43.602Z,99316.53
2017-10-03T10:58:11.159Z,99322.37
2017-10-03T11:00:38.634Z,99334.89
2017-10-03T11:03:06.134Z,99336.33
2017-10-03T11:05:33.609Z,99337.21
2017-10-03T11:08:01.094Z,99339.95
2017-10-03T11:10:28.579Z,99340.04
2017-10-03T11:12:56.382Z,99335.70
2017-10-03T11:15:23.992Z,99331.30
2017-10-03T11:17:51.611Z,99344.08
2017-10-03T11:20:19.085Z,99335.88
2017-10-03T11:22:58.544Z,99348.08
2017-10-03T11:25:26.021Z,99348.61
2017-10-03T11:27:53.532Z,99347.18
2017-10-03T11:30:21.072Z,99347.92
2017-10-03T11:32:48.642Z,99338.91
2017-10-03T11:35:16.139Z,99347.63
2017-10-03T11:37:43.605Z,99346.02
2017-10-03T11:40:11.499Z,99348.11
2017-10-03T11:42:38.962Z,99353.31
2017-10-03T11:45:06.445Z,99360.55
2017-10-03T11:47:33.943Z,99359.34
2017-10-03T11:50:01.407Z,99356.88
2017-10-03T11:52:28.893Z,99366.34
2017-10-03T11:54:56.364Z,99367.72
2017-10-03T11:57:23.847Z,99368.05
2017-10-03T11:59:51.315Z,99368.37
2017-10-03T12:02:18.805Z,99384.88
2017-10-03T12:04:46.259Z,99388.61
2017-10-03T12:07:13.998Z,99385.26
2017-10-03T12:09:41.485Z,99392.13
2017-10-03T12:12:08.959Z,99385.93
2017-10-03T12:14:36.418Z,99388.61
2017-10-03T12:17:03.913Z,99386.07
2017-10-03T12:19:31.383Z,99386.14
2017-10-03T12:21:58.846Z,99379.34
2017-10-03T12:24:26.318Z,99377.51
2017-10-03T12:26:53.773Z,99383.51
2017-10-03T12:29:21.240Z,99387.16
2017-10-03T12:31:48.704Z,99391.27
2017-10-03T12:34:16.160Z,99396.12
2017-10-03T12:36:43.651Z,99406.67
2017-10-03T12:39:11.282Z,99408.47
2017-10-03T12:41:38.757Z,99413.59
2017-10-03T12:44:06.233Z,99416.83
2017-10-03T12:46:33.783Z,99413.08
2017-10-03T12:49:03.295Z,99417.52
2017-10-03T12:51:31.055Z,99415.01
2017-10-03T12:53:58.519Z,99409.55
2017-10-03T12:56:25.993Z,99410.30
2017-10-03T12:58:53.524Z,99414.61
2017-10-03T13:01:21.002Z,99413.91
2017-10-03T13:03:48.474Z,99410.06
2017-10-03T13:06:15.945Z,99402.70
2017-10-03T13:08:43.486Z,99405.65
2017-10-03T13:11:11.755Z,99407.11
2017-10-03T13:13:39.216Z,99403.91
2017-10-03T13:16:06.692Z,99406.53
2017-10-03T13:18:34.465Z,99408.38
2017-10-03T13:21:02.127Z,99404.28
2017-10-03T13:23:29.590Z,99409.10
2017-10-03T13:25:57.104Z,99405.73
2017-10-03T13:28:24.594Z,99402.42
2017-10-03T13:30:52.118Z,99406.27
2017-10-03T13:33:19.586Z,99413.05
2017-10-03T13:35:47.142Z,99412.75
2017-10-03T13:38:14.709Z,99414.52
2017-10-03T13:40:42.570Z,99418.28
2017-10-03T13:43:10.057Z,99421.53
2017-10-03T13:45:38.233Z,99419.87
2017-10-03T13:48:05.746Z,99420.02
2017-10-03T13:50:33.235Z,99422.37
2017-10-03T13:53:00.718Z,99424.52
2017-10-03T13:55:28.186Z,99422.72
2017-10-03T13:57:55.684Z,99424.38
2017-10-03T14:00:23.171Z,99428.00
2017-10-03T14:02:50.797Z,99434.16
2017-10-03T14:05:18.266Z,99432.01
2017-10-03T14:07:46.144Z,99429.27
2017-10-03T14:10:13.686Z,99427.97
2017-10-03T14:12:41.165Z,99426.89
2017-10-03T14:15:08.664Z,99432.72
2017-10-03T14:17:36.127Z,99437.81
2017-10-03T14:20:03.619Z,99434.58
2017-10-03T14:22:31.107Z,99441.88
2017-10-03T14:24:58.581Z,99441.02
2017-10-03T14:27:26.087Z,99450.75
2017-10-03T14:29:53.576Z,99455.02
2017-10-03T14:32:21.032Z,99452.53
2017-10-03T14:34:48.552Z,99452.51
2017-10-03T14:37:16.048Z,99456.89
2017-10-03T14:39:43.581Z,99459.10
2017-10-03T14:42:11.099Z,99456.50
2017-10-03T14:44:38.563Z,99461.72
2017-10-03T14:47:06.052Z,99454.25
2017-10-03T14:49:33.571Z,99462.67
2017-10-03T14:52:01.044Z,99459.77
2017-10-03T14:54:28.519Z,99462.48
2017-10-03T14:56:55.989Z,99461.63
2017-10-03T14:59:23.483Z,99460.23
2017-10-03T15:01:50.962Z,99462.31
2017-10-03T15:04:18.437Z,99457.42
2017-10-03T15:06:45.936Z,99459.91
2017-10-03T15:09:13.483Z,99473.95
2017-10-03T15:11:40.938Z,99481.03
2017-10-03T15:14:08.677Z,99482.86
2017-10-03T15:16:36.144Z,99491.05
2017-10-03T15:19:03.947Z,99496.29
2017-10-03T15:21:32.275Z,99494.33
2017-10-03T15:23:59.751Z,99501.46
2017-10-03T15:26:27.297Z,99503.30
2017-10-03T15:28:54.776Z,99515.64
2017-10-03T15:31:22.261Z,99514.69
2017-10-03T15:33:49.733Z,99512.53
2017-10-03T15:36:17.234Z,99512.29
2017-10-03T15:38:44.707Z,99512.78
2017-10-03T15:41:12.211Z,99515.34
2017-10-03T15:43:39.704Z,99517.05
2017-10-03T15:46:07.293Z,99512.58
2017-10-03T15:48:34.824Z,99517.69
2017-10-03T15:51:02.388Z,99516.28
2017-10-03T15:53:29.857Z,99523.55
2017-10-03T15:55:57.339Z,99514.22
2017-10-03T15:58:24.896Z,99523.63
2017-10-03T16:00:52.376Z,99527.16
2017-10-03T16:03:19.863Z,99519.95
2017-10-03T16:05:47.343Z,99534.52
2017-10-03T16:08:14.808Z,99544.23
2017-10-03T16:10:42.319Z,99546.19
2017-10-03T16:13:09.797Z,99544.06
2017-10-03T16:15:38.245Z,99543.53
2017-10-03T16:18:05.712Z,99545.73
2017-10-03T16:20:33.192Z,99552.34
2017-10-03T16:23:00.691Z,99556.90
2017-10-03T16:25:28.166Z,99567.16
2017-10-03T16:27:55.618Z,99572.23
2017-10-03T16:30:23.118Z,99569.42
2017-10-03T16:32:50.583Z,99574.67
2017-10-03T16:35:18.043Z,99574.81
2017-10-03T16:37:45.525Z,99581.20
2017-10-03T16:40:12.983Z,99578.09
2017-10-03T16:42:40.489Z,99572.13
2017-10-03T16:45:07.952Z,99573.08
2017-10-03T16:47:35.424Z,99578.38
2017-10-03T16:50:02.879Z,99584.00
2017-10-03T16:52:30.421Z,99584.28
2017-10-03T16:54:57.883Z,99582.00
2017-10-03T16:57:25.678Z,99594.08
2017-10-03T16:59:53.150Z,99591.80
2017-10-03T17:02:20.646Z,99602.55
2017-10-03T17:04:48.119Z,99603.63
2017-10-03T17:07:15.580Z,99607.31
2017-10-03T17:09:43.176Z,99598.88
2017-10-03T17:12:10.743Z,99593.94
2017-10-03T17:14:39.134Z,99600.30
2017-10-03T17:17:06.611Z,99605.63
2017-10-03T17:19:34.118Z,99615.34
2017-10-03T17:22:01.689Z,99619.25
2017-10-03T17:24:29.158Z,99617.39
2017-10-03T17:26:56.710Z,99616.00
2017-10-03T17:29:24.171Z,99613.61
2017-10-03T17:31:51.907Z,99603.95
2017-10-03T17:34:19.374Z,99615.09
2017-10-03T17:36:46.865Z,99616.22
2017-10-03T17:39:14.364Z,99616.86
2017-10-03T17:41:41.835Z,99627.70
2017-10-03T17:44:09.315Z,99624.50
2017-10-03T17:46:36.797Z,99625.29
2017-10-03T17:49:04.262Z,99634.75
2017-10-03T17:51:31.732Z,99635.66
2017-10-03T17:53:59.209Z,99638.19
2017-10-03T17:56:26.693Z,99646.88
2017-10-03T17:58:54.195Z,99649.89
2017-10-03T18:01:21.728Z,99644.73
2017-10-03T18:03:49.280Z,99650.97
2017-10-03T18:06:16.748Z,99660.52
2017-10-03T18:08:44.331Z,99655.50
2017-10-03T18:11:11.817Z,99663.73
2017-10-03T18:13:39.611Z,99660.45
2017-10-03T18:16:07.101Z,99667.69
2017-10-03T18:18:34.661Z,99671.05
2017-10-03T18:21:02.132Z,99674.31
2017-10-03T18:23:29.615Z,99678.53
2017-10-03T18:25:57.194Z,99691.89
2017-10-03T18:28:24.670Z,99689.88
2017-10-03T18:30:52.231Z,99688.89
2017-10-03T18:33:19.751Z,99696.20
2017-10-03T18:35:47.212Z,99690.98
2017-10-03T18:38:14.684Z,99697.73
2017-10-03T18:40:42.147Z,99696.13
2017-10-03T18:43:09.632Z,99700.58
2017-10-03T18:45:37.093Z,99705.59
2017-10-03T18:48:04.616Z,99706.62
2017-10-03T18:50:32.954Z,99709.33
2017-10-03T18:53:00.445Z,99723.66
2017-10-03T18:55:27.914Z,99723.48
2017-10-03T18:57:55.403Z,99719.99
2017-10-03T19:00:22.856Z,99724.19
2017-10-03T19:02:50.339Z,99729.84
2017-10-03T19:05:17.825Z,99732.34
2017-10-03T19:07:45.534Z,99740.63
2017-10-03T19:10:12.997Z,99733.39
2017-10-03T19:12:40.806Z,99741.44
2017-10-03T19:15:08.278Z,99738.00
2017-10-03T19:17:35.846Z,99742.30
2017-10-03T19:20:03.429Z,99733.80
2017-10-03T19:22:30.966Z,99740.30
2017-10-03T19:24:58.534Z,99731.20
2017-10-03T19:27:26.024Z,99745.41
2017-10-03T19:29:53.551Z,99756.20
2017-10-03T19:32:21.016Z,99762.85
2017-10-03T19:34:49.033Z,99766.02
2017-10-03T19:37:16.516Z,99771.26
2017-10-03T19:39:44.079Z,99766.98
2017-10-03T19:42:11.566Z,99767.72
2017-10-03T19:44:39.074Z,99776.62
2017-10-03T19:47:06.667Z,99782.20
2017-10-03T19:49:34.143Z,99787.92
2017-10-03T19:52:01.624Z,99791.94
2017-10-03T19:54:29.082Z,99793.35
2017-10-03T19:56:56.572Z,99787.03
2017-10-03T19:59:24.038Z,99789.43
2017-10-03T20:01:51.540Z,99784.36
2017-10-03T20:04:19.066Z,99790.41
2017-10-03T20:06:46.561Z,99797.35
2017-10-03T20:09:14.040Z,99798.73
2017-10-03T20:11:41.513Z,99794.97
2017-10-03T20:14:08.976Z,99794.80
2017-10-03T20:16:36.467Z,99796.27
2017-10-03T20:19:03.960Z,99800.76
2017-10-03T20:21:31.462Z,99806.26
2017-10-03T20:23:58.933Z,99808.53
2017-10-03T20:26:26.409Z,99809.91
2017-10-03T20:28:53.910Z,99808.52
2017-10-03T20:31:21.374Z,99814.27
2017-10-03T20:33:49.872Z,99810.30
2017-10-03T20:36:17.337Z,99798.23
2017-10-03T20:38:44.828Z,99803.53
2017-10-03T20:41:12.357Z,99805.05
2017-10-03T20:43:39.827Z,99807.67
2017-10-03T20:46:07.310Z,99811.96
2017-10-03T20:48:34.786Z,99815.58
2017-10-03T20:51:02.287Z,99810.20
2017-10-03T20:53:29.767Z,99808.89
2017-10-03T20:55:57.254Z,99802.21
2017-10-03T20:58:24.759Z,99813.66
2017-10-03T21:00:52.265Z,99815.45
2017-10-03T21:03:19.733Z,99815.80
2017-10-03T21:05:47.215Z,99810.05
2017-10-03T21:08:14.690Z,99809.86
2017-10-03T21:10:42.149Z,99813.23
2017-10-03T21:13:09.647Z,99821.39
2017-10-03T21:15:37.122Z,99822.62
2017-10-03T21:18:04.611Z,99827.30
2017-10-03T21:20:32.084Z,99830.01
2017-10-03T21:22:59.865Z,99824.38
2017-10-03T21:25:27.342Z,99830.98
2017-10-03T21:27:54.816Z,99842.41
2017-10-03T21:30:22.318Z,99835.34
2017-10-03T21:32:50.070Z,99837.50
2017-10-03T21:35:17.535Z,99846.50
2017-10-03T21:37:45.012Z,99849.90
2017-10-03T21:40:12.494Z,99842.13
2017-10-03T21:42:52.009Z,99846.61
2017-10-03T21:45:19.489Z,99850.53
2017-10-03T21:47:46.961Z,99848.19
2017-10-03T21:50:14.454Z,99846.05
2017-10-03T21:52:41.935Z,99839.27
2017-10-03T21:55:09.417Z,99847.31
2017-10-03T21:57:36.885Z,99839.98
2017-10-03T22:00:04.347Z,99848.50
2017-10-03T22:02:31.846Z,99851.69
2017-10-03T22:04:59.404Z,99843.77
2017-10-03T22:07:29.547Z,99848.26
2017-10-03T22:09:57.076Z,99843.59
2017-10-03T22:12:24.568Z,99841.44
2017-10-03T22:14:52.032Z,99845.73
2017-10-03T22:17:19.507Z,99841.02
2017-10-03T22:19:46.980Z,99840.77
2017-10-03T22:22:14.487Z,99844.41
2017-10-03T22:24:41.972Z,99843.00
2017-10-03T22:27:09.530Z,99848.92
2017-10-03T22:29:37.010Z,99859.05
2017-10-03T22:32:04.471Z,99852.16
2017-10-03T22:34:31.944Z,99859.17
2017-10-03T22:36:59.422Z,99858.32
2017-10-03T22:39:26.893Z,99867.08
2017-10-03T22:41:54.578Z,99864.45
2017-10-03T22:44:22.069Z,99867.62
2017-10-03T22:46:49.550Z,99854.15
2017-10-03T22:49:17.011Z,99847.29
2017-10-03T22:51:50.078Z,99842.44
2017-10-03T22:54:17.561Z,99829.92
2017-10-03T22:56:45.100Z,99829.64
2017-10-03T22:59:12.552Z,99831.11
2017-10-03T23:01:40.036Z,99828.69
2017-10-03T23:04:08.391Z,99815.52
2017-10-03T23:06:35.875Z,99798.64
2017-10-03T23:09:03.437Z,99805.59
2017-10-03T23:11:30.993Z,99813.62
2017-10-03T23:13:58.476Z,99815.60
2017-10-03T23:16:25.998Z,99817.95
2017-10-03T23:18:53.468Z,99812.88
2017-10-03T23:21:20.963Z,99810.41
2017-10-03T23:23:48.431Z,99823.46
2017-10-03T23:26:15.887Z,99823.75
2017-10-03T23:28:43.367Z,99824.89
2017-10-03T23:31:10.843Z,99829.28
2017-10-03T23:33:38.353Z,99826.95
2017-10-03T23:36:05.814Z,99813.05
2017-10-03T23:38:33.280Z,99820.83
2017-10-03T23:41:00.787Z,99817.28
2017-10-03T23:43:28.261Z,99826.75
2017-10-03T23:45:55.749Z,99826.89
2017-10-03T23:48:23.202Z,99839.56
2017-10-03T23:50:50.679Z,99837.80
2017-10-03T23:53:18.139Z,99838.22
2017-10-03T23:55:45.608Z,99837.24
2017-10-03T23:58:13.088Z,99852.16
